sensor_id;sensor_type;location;lat;lon;timestamp;pressure;altitude;pressure_sealevel;temperature;humidity
26083;BME280;13848;49.018;12.078;2023-04-01T00:00:54;96290.56;;;8.30;75.16
26083;BME280;13848;49.018;12.078;2023-04-01T00:03:22;96294.88;;;8.31;75.11
26083;BME280;13848;49.018;12.078;2023-04-01T00:05:48;96287.88;;;8.30;74.62
26083;BME280;13848;49.018;12.078;2023-04-01T00:08:16;96295.94;;;8.30;74.64
26083;BME280;13848;49.018;12.078;2023-04-01T00:10:42;96283.63;;;8.34;74.38
26083;BME280;13848;49.018;12.078;2023-04-01T00:13:08;96273.50;;;8.36;74.17
26083;BME280;13848;49.018;12.078;2023-04-01T00:15:35;96273.00;;;8.39;74.13
26083;BME280;13848;49.018;12.078;2023-04-01T00:18:02;96284.56;;;8.39;73.93
26083;BME280;13848;49.018;12.078;2023-04-01T00:20:29;96281.56;;;8.36;74.05
26083;BME280;13848;49.018;12.078;2023-04-01T00:22:56;96278.16;;;8.28;74.12
26083;BME280;13848;49.018;12.078;2023-04-01T00:25:24;96282.97;;;8.26;74.14
26083;BME280;13848;49.018;12.078;2023-04-01T00:27:50;96279.81;;;8.30;74.21
26083;BME280;13848;49.018;12.078;2023-04-01T00:30:16;96281.75;;;8.34;74.09
26083;BME280;13848;49.018;12.078;2023-04-01T00:32:43;96284.81;;;8.38;73.79
26083;BME280;13848;49.018;12.078;2023-04-01T00:35:09;96295.00;;;8.36;73.71
26083;BME280;13848;49.018;12.078;2023-04-01T00:37:37;96281.44;;;8.31;73.90
26083;BME280;13848;49.018;12.078;2023-04-01T00:40:06;96285.19;;;8.30;73.57
26083;BME280;13848;49.018;12.078;2023-04-01T00:42:34;96282.72;;;8.28;73.82
26083;BME280;13848;49.018;12.078;2023-04-01T00:48:09;96262.13;;;8.17;73.77
26083;BME280;13848;49.018;12.078;2023-04-01T00:50:37;96271.41;;;8.26;73.75
26083;BME280;13848;49.018;12.078;2023-04-01T00:53:07;96270.97;;;8.17;74.06
26083;BME280;13848;49.018;12.078;2023-04-01T00:55:35;96268.06;;;8.19;73.86
26083;BME280;13848;49.018;12.078;2023-04-01T00:58:07;96279.13;;;8.22;73.92
26083;BME280;13848;49.018;12.078;2023-04-01T01:00:35;96269.53;;;8.26;73.99
26083;BME280;13848;49.018;12.078;2023-04-01T01:03:02;96279.22;;;8.27;73.74
26083;BME280;13848;49.018;12.078;2023-04-01T01:05:36;96273.19;;;8.20;73.51
26083;BME280;13848;49.018;12.078;2023-04-01T01:08:11;96269.06;;;8.30;73.55
26083;BME280;13848;49.018;12.078;2023-04-01T01:10:42;96262.13;;;8.34;73.36
26083;BME280;13848;49.018;12.078;2023-04-01T01:13:14;96272.31;;;8.32;73.09
26083;BME280;13848;49.018;12.078;2023-04-01T01:15:46;96264.50;;;8.30;73.05
26083;BME280;13848;49.018;12.078;2023-04-01T01:18:19;96262.72;;;8.19;73.36
26083;BME280;13848;49.018;12.078;2023-04-01T01:21:07;96265.94;;;8.21;73.33
26083;BME280;13848;49.018;12.078;2023-04-01T01:24:08;96266.28;;;8.24;72.93
26083;BME280;13848;49.018;12.078;2023-04-01T01:26:57;96270.34;;;8.27;73.09
26083;BME280;13848;49.018;12.078;2023-04-01T01:29:46;96260.19;;;8.12;73.48
26083;BME280;13848;49.018;12.078;2023-04-01T01:32:25;96256.53;;;8.18;73.04
26083;BME280;13848;49.018;12.078;2023-04-01T01:35:06;96257.25;;;8.14;73.21
26083;BME280;13848;49.018;12.078;2023-04-01T01:37:33;96261.22;;;8.11;73.27
26083;BME280;13848;49.018;12.078;2023-04-01T01:40:03;96268.03;;;8.02;73.64
26083;BME280;13848;49.018;12.078;2023-04-01T01:42:31;96256.69;;;8.12;73.40
26083;BME280;13848;49.018;12.078;2023-04-01T01:45:01;96261.41;;;8.21;73.19
26083;BME280;13848;49.018;12.078;2023-04-01T01:47:28;96265.78;;;8.27;73.24
26083;BME280;13848;49.018;12.078;2023-04-01T01:49:55;96250.03;;;8.31;73.08
26083;BME280;13848;49.018;12.078;2023-04-01T01:52:23;96258.16;;;8.19;73.25
26083;BME280;13848;49.018;12.078;2023-04-01T01:54:53;96258.25;;;8.24;73.18
26083;BME280;13848;49.018;12.078;2023-04-01T01:57:23;96259.69;;;8.15;73.26
26083;BME280;13848;49.018;12.078;2023-04-01T01:59:52;96253.75;;;8.13;73.71
26083;BME280;13848;49.018;12.078;2023-04-01T02:02:21;96255.38;;;8.14;73.72
26083;BME280;13848;49.018;12.078;2023-04-01T02:04:49;96263.97;;;8.16;73.52
26083;BME280;13848;49.018;12.078;2023-04-01T02:07:19;96259.38;;;8.12;73.79
26083;BME280;13848;49.018;12.078;2023-04-01T02:09:48;96256.75;;;8.17;73.67
26083;BME280;13848;49.018;12.078;2023-04-01T02:12:15;96252.78;;;8.19;73.54
26083;BME280;13848;49.018;12.078;2023-04-01T02:14:43;96257.34;;;8.19;73.94
26083;BME280;13848;49.018;12.078;2023-04-01T02:17:13;96246.97;;;8.11;74.05
26083;BME280;13848;49.018;12.078;2023-04-01T02:19:45;96248.84;;;8.10;73.79
26083;BME280;13848;49.018;12.078;2023-04-01T02:22:16;96254.31;;;8.15;73.79
26083;BME280;13848;49.018;12.078;2023-04-01T02:24:44;96248.19;;;8.03;74.09
26083;BME280;13848;49.018;12.078;2023-04-01T02:27:12;96251.94;;;8.02;74.58
26083;BME280;13848;49.018;12.078;2023-04-01T02:29:38;96254.22;;;8.10;74.19
26083;BME280;13848;49.018;12.078;2023-04-01T02:32:05;96257.97;;;8.09;74.37
26083;BME280;13848;49.018;12.078;2023-04-01T02:34:32;96261.34;;;8.05;74.88
26083;BME280;13848;49.018;12.078;2023-04-01T02:36:58;96262.81;;;7.95;75.30
26083;BME280;13848;49.018;12.078;2023-04-01T02:39:25;96267.84;;;7.92;75.31
26083;BME280;13848;49.018;12.078;2023-04-01T02:41:51;96255.09;;;7.99;75.29
26083;BME280;13848;49.018;12.078;2023-04-01T02:44:18;96262.16;;;8.05;74.97
26083;BME280;13848;49.018;12.078;2023-04-01T02:46:44;96271.94;;;8.11;74.77
26083;BME280;13848;49.018;12.078;2023-04-01T02:49:10;96275.03;;;8.03;75.25
26083;BME280;13848;49.018;12.078;2023-04-01T02:51:36;96281.22;;;8.04;75.16
26083;BME280;13848;49.018;12.078;2023-04-01T02:54:03;96273.88;;;7.99;75.74
26083;BME280;13848;49.018;12.078;2023-04-01T02:56:29;96278.78;;;8.02;75.25
26083;BME280;13848;49.018;12.078;2023-04-01T02:58:56;96278.78;;;8.02;75.34
26083;BME280;13848;49.018;12.078;2023-04-01T03:01:23;96289.69;;;8.12;75.05
26083;BME280;13848;49.018;12.078;2023-04-01T03:03:49;96293.91;;;8.08;74.98
26083;BME280;13848;49.018;12.078;2023-04-01T03:06:16;96280.25;;;8.10;74.89
26083;BME280;13848;49.018;12.078;2023-04-01T03:08:42;96290.41;;;8.08;74.85
26083;BME280;13848;49.018;12.078;2023-04-01T03:11:08;96286.81;;;8.02;75.37
26083;BME280;13848;49.018;12.078;2023-04-01T03:13:34;96289.41;;;7.97;75.46
26083;BME280;13848;49.018;12.078;2023-04-01T03:16:00;96290.47;;;7.96;75.43
26083;BME280;13848;49.018;12.078;2023-04-01T03:18:28;96288.91;;;8.00;75.20
26083;BME280;13848;49.018;12.078;2023-04-01T03:20:53;96285.41;;;7.99;75.18
26083;BME280;13848;49.018;12.078;2023-04-01T03:23:19;96292.56;;;7.94;75.05
26083;BME280;13848;49.018;12.078;2023-04-01T03:25:45;96294.38;;;8.05;75.14
26083;BME280;13848;49.018;12.078;2023-04-01T03:28:11;96294.66;;;7.92;75.40
26083;BME280;13848;49.018;12.078;2023-04-01T03:30:37;96290.47;;;7.96;75.29
26083;BME280;13848;49.018;12.078;2023-04-01T03:33:03;96295.84;;;7.96;74.98
26083;BME280;13848;49.018;12.078;2023-04-01T03:35:31;96303.28;;;7.94;75.14
26083;BME280;13848;49.018;12.078;2023-04-01T03:37:57;96305.06;;;7.88;75.16
26083;BME280;13848;49.018;12.078;2023-04-01T03:40:23;96297.59;;;7.90;74.74
26083;BME280;13848;49.018;12.078;2023-04-01T03:42:49;96291.22;;;7.80;75.31
26083;BME280;13848;49.018;12.078;2023-04-01T03:45:15;96301.50;;;7.83;75.48
26083;BME280;13848;49.018;12.078;2023-04-01T03:47:41;96300.03;;;7.92;75.09
26083;BME280;13848;49.018;12.078;2023-04-01T03:50:08;96300.53;;;7.89;74.95
26083;BME280;13848;49.018;12.078;2023-04-01T03:52:35;96307.53;;;7.90;74.95
26083;BME280;13848;49.018;12.078;2023-04-01T03:55:01;96307.03;;;7.93;74.90
26083;BME280;13848;49.018;12.078;2023-04-01T03:57:27;96308.09;;;7.92;75.00
26083;BME280;13848;49.018;12.078;2023-04-01T03:59:53;96317.59;;;7.83;75.49
26083;BME280;13848;49.018;12.078;2023-04-01T04:02:19;96308.94;;;7.81;74.76
26083;BME280;13848;49.018;12.078;2023-04-01T04:04:45;96308.03;;;7.75;75.52
26083;BME280;13848;49.018;12.078;2023-04-01T04:07:11;96308.28;;;7.73;75.51
26083;BME280;13848;49.018;12.078;2023-04-01T04:09:38;96310.72;;;7.75;75.29
26083;BME280;13848;49.018;12.078;2023-04-01T04:12:04;96315.25;;;7.74;75.46
26083;BME280;13848;49.018;12.078;2023-04-01T04:14:31;96305.34;;;7.75;75.59
26083;BME280;13848;49.018;12.078;2023-04-01T04:16:57;96303.97;;;7.72;75.81
26083;BME280;13848;49.018;12.078;2023-04-01T04:19:23;96306.16;;;7.76;75.25
26083;BME280;13848;49.018;12.078;2023-04-01T04:21:49;96315.25;;;7.74;75.76
26083;BME280;13848;49.018;12.078;2023-04-01T04:24:15;96330.53;;;7.74;75.50
26083;BME280;13848;49.018;12.078;2023-04-01T04:26:42;96326.47;;;7.71;75.74
26083;BME280;13848;49.018;12.078;2023-04-01T04:29:08;96322.63;;;7.67;76.14
26083;BME280;13848;49.018;12.078;2023-04-01T04:31:34;96331.34;;;7.74;75.73
26083;BME280;13848;49.018;12.078;2023-04-01T04:34:00;96323.88;;;7.77;75.59
26083;BME280;13848;49.018;12.078;2023-04-01T04:36:26;96322.03;;;7.77;75.82
26083;BME280;13848;49.018;12.078;2023-04-01T04:38:52;96330.25;;;7.87;75.82
26083;BME280;13848;49.018;12.078;2023-04-01T04:41:19;96335.19;;;7.79;76.20
26083;BME280;13848;49.018;12.078;2023-04-01T04:43:51;96344.66;;;7.69;76.92
26083;BME280;13848;49.018;12.078;2023-04-01T04:46:18;96331.13;;;7.64;77.54
26083;BME280;13848;49.018;12.078;2023-04-01T04:48:44;96328.56;;;7.69;77.17
26083;BME280;13848;49.018;12.078;2023-04-01T04:51:13;96322.75;;;7.72;77.32
26083;BME280;13848;49.018;12.078;2023-04-01T04:53:39;96324.25;;;7.68;77.31
26083;BME280;13848;49.018;12.078;2023-04-01T04:56:05;96322.97;;;7.59;77.14
26083;BME280;13848;49.018;12.078;2023-04-01T04:58:31;96325.09;;;7.57;77.29
26083;BME280;13848;49.018;12.078;2023-04-01T05:00:58;96330.00;;;7.60;76.92
26083;BME280;13848;49.018;12.078;2023-04-01T05:03:24;96333.25;;;7.62;77.11
26083;BME280;13848;49.018;12.078;2023-04-01T05:05:52;96337.81;;;7.62;76.97
26083;BME280;13848;49.018;12.078;2023-04-01T05:08:19;96342.81;;;7.58;76.97
26083;BME280;13848;49.018;12.078;2023-04-01T05:10:45;96335.81;;;7.57;76.43
26083;BME280;13848;49.018;12.078;2023-04-01T05:13:11;96336.38;;;7.59;76.65
26083;BME280;13848;49.018;12.078;2023-04-01T05:15:37;96343.88;;;7.57;76.63
26083;BME280;13848;49.018;12.078;2023-04-01T05:18:04;96347.38;;;7.58;76.73
26083;BME280;13848;49.018;12.078;2023-04-01T05:20:30;96349.13;;;7.52;76.67
26083;BME280;13848;49.018;12.078;2023-04-01T05:22:56;96346.56;;;7.57;76.54
26083;BME280;13848;49.018;12.078;2023-04-01T05:25:22;96349.91;;;7.64;76.08
26083;BME280;13848;49.018;12.078;2023-04-01T05:27:48;96352.59;;;7.64;76.45
26083;BME280;13848;49.018;12.078;2023-04-01T05:30:14;96352.72;;;7.69;76.29
26083;BME280;13848;49.018;12.078;2023-04-01T05:32:40;96352.25;;;7.72;76.07
26083;BME280;13848;49.018;12.078;2023-04-01T05:35:08;96354.34;;;7.70;76.11
26083;BME280;13848;49.018;12.078;2023-04-01T05:37:33;96352.59;;;7.64;75.98
26083;BME280;13848;49.018;12.078;2023-04-01T05:39:59;96359.69;;;7.70;76.38
26083;BME280;13848;49.018;12.078;2023-04-01T05:42:25;96355.28;;;7.64;76.59
26083;BME280;13848;49.018;12.078;2023-04-01T05:44:51;96349.22;;;7.69;76.82
26083;BME280;13848;49.018;12.078;2023-04-01T05:47:17;96350.94;;;7.75;77.21
26083;BME280;13848;49.018;12.078;2023-04-01T05:49:43;96350.84;;;7.58;77.48
26083;BME280;13848;49.018;12.078;2023-04-01T05:52:10;96355.75;;;7.61;77.37
26083;BME280;13848;49.018;12.078;2023-04-01T05:54:36;96358.66;;;7.71;77.06
26083;BME280;13848;49.018;12.078;2023-04-01T05:57:02;96356.41;;;7.80;76.77
26083;BME280;13848;49.018;12.078;2023-04-01T05:59:28;96355.63;;;7.80;76.85
26083;BME280;13848;49.018;12.078;2023-04-01T06:01:54;96357.13;;;7.76;76.81
26083;BME280;13848;49.018;12.078;2023-04-01T06:04:20;96364.34;;;7.75;76.79
26083;BME280;13848;49.018;12.078;2023-04-01T06:06:46;96363.69;;;7.56;77.45
26083;BME280;13848;49.018;12.078;2023-04-01T06:09:16;96368.56;;;7.71;76.18
26083;BME280;13848;49.018;12.078;2023-04-01T06:11:54;96361.44;;;7.77;76.46
26083;BME280;13848;49.018;12.078;2023-04-01T06:14:32;96361.41;;;7.88;76.32
26083;BME280;13848;49.018;12.078;2023-04-01T06:17:19;96362.25;;;7.89;76.55
26083;BME280;13848;49.018;12.078;2023-04-01T06:19:54;96354.19;;;7.89;75.84
26083;BME280;13848;49.018;12.078;2023-04-01T06:23:00;96355.97;;;7.83;75.59
26083;BME280;13848;49.018;12.078;2023-04-01T06:29:10;96358.34;;;8.08;75.00
26083;BME280;13848;49.018;12.078;2023-04-01T06:31:58;96361.28;;;8.07;75.07
26083;BME280;13848;49.018;12.078;2023-04-01T06:34:42;96365.81;;;8.06;74.54
26083;BME280;13848;49.018;12.078;2023-04-01T06:37:23;96366.59;;;8.18;74.01
26083;BME280;13848;49.018;12.078;2023-04-01T06:40:06;96379.88;;;8.25;73.80
26083;BME280;13848;49.018;12.078;2023-04-01T06:42:49;96374.66;;;8.18;73.78
26083;BME280;13848;49.018;12.078;2023-04-01T06:45:30;96368.50;;;8.35;74.28
26083;BME280;13848;49.018;12.078;2023-04-01T06:48:10;96383.25;;;8.61;73.00
26083;BME280;13848;49.018;12.078;2023-04-01T06:50:46;96384.75;;;8.40;72.58
26083;BME280;13848;49.018;12.078;2023-04-01T06:53:18;96375.72;;;8.46;72.70
26083;BME280;13848;49.018;12.078;2023-04-01T06:55:48;96373.53;;;8.43;72.35
26083;BME280;13848;49.018;12.078;2023-04-01T06:58:20;96364.56;;;8.83;72.21
26083;BME280;13848;49.018;12.078;2023-04-01T07:00:49;96366.38;;;9.11;71.08
26083;BME280;13848;49.018;12.078;2023-04-01T07:03:20;96367.25;;;8.83;71.12
26083;BME280;13848;49.018;12.078;2023-04-01T07:05:47;96372.72;;;8.88;70.90
26083;BME280;13848;49.018;12.078;2023-04-01T07:08:17;96370.41;;;8.79;71.12
26083;BME280;13848;49.018;12.078;2023-04-01T07:10:47;96367.41;;;8.93;70.46
26083;BME280;13848;49.018;12.078;2023-04-01T07:13:20;96369.13;;;9.16;70.06
26083;BME280;13848;49.018;12.078;2023-04-01T07:15:56;96366.34;;;9.27;69.39
26083;BME280;13848;49.018;12.078;2023-04-01T07:18:30;96384.13;;;9.28;68.94
26083;BME280;13848;49.018;12.078;2023-04-01T07:20:58;96371.41;;;9.07;69.39
26083;BME280;13848;49.018;12.078;2023-04-01T07:23:29;96369.78;;;9.40;69.98
26083;BME280;13848;49.018;12.078;2023-04-01T07:26:01;96365.50;;;9.44;68.58
26083;BME280;13848;49.018;12.078;2023-04-01T07:28:31;96360.28;;;9.54;69.48
26083;BME280;13848;49.018;12.078;2023-04-01T07:31:07;96362.31;;;9.85;68.53
26083;BME280;13848;49.018;12.078;2023-04-01T07:33:39;96358.53;;;9.81;68.28
26083;BME280;13848;49.018;12.078;2023-04-01T07:36:13;96362.59;;;10.06;68.64
26083;BME280;13848;49.018;12.078;2023-04-01T07:38:49;96361.22;;;9.81;67.59
26083;BME280;13848;49.018;12.078;2023-04-01T07:41:29;96368.69;;;9.79;67.51
26083;BME280;13848;49.018;12.078;2023-04-01T07:44:06;96366.06;;;9.84;67.69
26083;BME280;13848;49.018;12.078;2023-04-01T07:46:49;96362.13;;;9.70;67.95
26083;BME280;13848;49.018;12.078;2023-04-01T07:49:22;96374.81;;;9.92;67.49
26083;BME280;13848;49.018;12.078;2023-04-01T07:51:58;96374.75;;;9.86;67.16
26083;BME280;13848;49.018;12.078;2023-04-01T07:54:32;96374.22;;;9.90;66.90
26083;BME280;13848;49.018;12.078;2023-04-01T07:57:03;96378.59;;;9.96;66.93
26083;BME280;13848;49.018;12.078;2023-04-01T07:59:39;96374.50;;;10.10;67.77
26083;BME280;13848;49.018;12.078;2023-04-01T08:02:14;96374.59;;;9.76;66.44
26083;BME280;13848;49.018;12.078;2023-04-01T08:04:54;96372.41;;;9.95;66.60
26083;BME280;13848;49.018;12.078;2023-04-01T08:07:25;96362.47;;;10.18;66.23
26083;BME280;13848;49.018;12.078;2023-04-01T08:10:02;96367.34;;;9.99;65.93
26083;BME280;13848;49.018;12.078;2023-04-01T08:12:41;96370.13;;;10.04;65.92
26083;BME280;13848;49.018;12.078;2023-04-01T08:15:17;96376.25;;;10.21;66.04
26083;BME280;13848;49.018;12.078;2023-04-01T08:17:57;96372.69;;;10.16;65.04
26083;BME280;13848;49.018;12.078;2023-04-01T08:20:32;96368.06;;;10.33;65.39
26083;BME280;13848;49.018;12.078;2023-04-01T08:23:06;96369.13;;;10.59;64.07
26083;BME280;13848;49.018;12.078;2023-04-01T08:25:39;96365.59;;;10.31;63.89
26083;BME280;13848;49.018;12.078;2023-04-01T08:28:13;96370.44;;;10.83;63.68
26083;BME280;13848;49.018;12.078;2023-04-01T08:30:43;96360.19;;;11.12;62.63
26083;BME280;13848;49.018;12.078;2023-04-01T08:33:14;96355.22;;;11.31;61.20
26083;BME280;13848;49.018;12.078;2023-04-01T08:35:46;96366.63;;;11.43;60.96
26083;BME280;13848;49.018;12.078;2023-04-01T08:38:18;96365.69;;;11.28;61.43
26083;BME280;13848;49.018;12.078;2023-04-01T08:40:58;96359.38;;;11.12;60.94
26083;BME280;13848;49.018;12.078;2023-04-01T08:43:40;96356.91;;;10.78;60.67
26083;BME280;13848;49.018;12.078;2023-04-01T08:46:23;96358.63;;;10.84;60.68
26083;BME280;13848;49.018;12.078;2023-04-01T08:49:07;96351.91;;;11.24;61.50
26083;BME280;13848;49.018;12.078;2023-04-01T08:52:00;96359.84;;;11.04;60.12
26083;BME280;13848;49.018;12.078;2023-04-01T08:54:48;96362.06;;;11.12;60.11
26083;BME280;13848;49.018;12.078;2023-04-01T08:57:35;96364.94;;;10.68;60.87
26083;BME280;13848;49.018;12.078;2023-04-01T09:00:14;96349.84;;;10.72;60.40
26083;BME280;13848;49.018;12.078;2023-04-01T09:02:50;96357.59;;;10.90;60.66
26083;BME280;13848;49.018;12.078;2023-04-01T09:05:31;96358.34;;;10.59;59.87
26083;BME280;13848;49.018;12.078;2023-04-01T09:08:08;96351.81;;;10.50;59.73
26083;BME280;13848;49.018;12.078;2023-04-01T09:11:05;96341.44;;;10.63;60.24
26083;BME280;13848;49.018;12.078;2023-04-01T09:13:46;96350.81;;;10.61;60.11
26083;BME280;13848;49.018;12.078;2023-04-01T09:16:27;96367.78;;;10.56;60.02
26083;BME280;13848;49.018;12.078;2023-04-01T09:19:28;96344.75;;;10.49;60.51
26083;BME280;13848;49.018;12.078;2023-04-01T09:22:22;96339.97;;;10.51;60.07
26083;BME280;13848;49.018;12.078;2023-04-01T09:25:21;96349.56;;;10.42;60.63
26083;BME280;13848;49.018;12.078;2023-04-01T09:27:56;96331.22;;;10.38;60.85
26083;BME280;13848;49.018;12.078;2023-04-01T09:33:40;96350.22;;;10.54;62.02
26083;BME280;13848;49.018;12.078;2023-04-01T09:36:16;96350.69;;;10.46;61.63
26083;BME280;13848;49.018;12.078;2023-04-01T09:38:55;96347.03;;;10.57;61.05
26083;BME280;13848;49.018;12.078;2023-04-01T09:41:28;96353.78;;;10.59;61.64
26083;BME280;13848;49.018;12.078;2023-04-01T09:44:01;96361.38;;;10.62;61.96
26083;BME280;13848;49.018;12.078;2023-04-01T09:46:35;96352.03;;;10.75;61.50
26083;BME280;13848;49.018;12.078;2023-04-01T09:49:26;96354.25;;;11.10;61.71
26083;BME280;13848;49.018;12.078;2023-04-01T09:54:59;96352.66;;;10.82;61.39
26083;BME280;13848;49.018;12.078;2023-04-01T09:57:45;96349.84;;;10.72;61.57
26083;BME280;13848;49.018;12.078;2023-04-01T10:00:35;96366.47;;;10.37;62.46
26083;BME280;13848;49.018;12.078;2023-04-01T10:06:51;96353.16;;;10.79;61.92
26083;BME280;13848;49.018;12.078;2023-04-01T10:09:59;96351.72;;;10.99;61.65
26083;BME280;13848;49.018;12.078;2023-04-01T10:13:14;96352.09;;;10.80;61.18
26083;BME280;13848;49.018;12.078;2023-04-01T10:16:03;96342.06;;;10.44;60.81
26083;BME280;13848;49.018;12.078;2023-04-01T10:21:57;96334.72;;;10.98;61.03
26083;BME280;13848;49.018;12.078;2023-04-01T10:24:39;96337.03;;;10.84;60.28
26083;BME280;13848;49.018;12.078;2023-04-01T10:27:33;96343.84;;;10.92;59.72
26083;BME280;13848;49.018;12.078;2023-04-01T10:33:22;96334.78;;;10.76;60.25
26083;BME280;13848;49.018;12.078;2023-04-01T10:36:14;96326.94;;;11.02;59.73
26083;BME280;13848;49.018;12.078;2023-04-01T10:39:10;96324.59;;;11.15;59.59
26083;BME280;13848;49.018;12.078;2023-04-01T10:45:15;96326.94;;;11.02;60.49
26083;BME280;13848;49.018;12.078;2023-04-01T10:48:07;96330.63;;;11.28;60.17
26083;BME280;13848;49.018;12.078;2023-04-01T10:50:58;96325.47;;;11.21;60.63
26083;BME280;13848;49.018;12.078;2023-04-01T10:56:51;96314.09;;;11.14;60.38
26083;BME280;13848;49.018;12.078;2023-04-01T10:59:36;96325.81;;;10.98;60.06
26083;BME280;13848;49.018;12.078;2023-04-01T11:05:46;96326.16;;;11.06;60.89
26083;BME280;13848;49.018;12.078;2023-04-01T11:08:46;96314.22;;;11.34;60.12
26083;BME280;13848;49.018;12.078;2023-04-01T11:23:58;96323.84;;;10.88;59.97
26083;BME280;13848;49.018;12.078;2023-04-01T11:26:42;96316.31;;;10.58;60.84
26083;BME280;13848;49.018;12.078;2023-04-01T11:29:23;96327.75;;;11.02;61.16
26083;BME280;13848;49.018;12.078;2023-04-01T11:31:58;96328.97;;;10.89;60.81
26083;BME280;13848;49.018;12.078;2023-04-01T11:34:57;96326.88;;;10.64;63.21
26083;BME280;13848;49.018;12.078;2023-04-01T11:37:38;96358.22;;;10.44;64.78
26083;BME280;13848;49.018;12.078;2023-04-01T11:40:20;96363.13;;;10.08;67.47
26083;BME280;13848;49.018;12.078;2023-04-01T11:42:51;96348.19;;;10.17;67.63
26083;BME280;13848;49.018;12.078;2023-04-01T11:45:33;96346.63;;;10.21;67.64
26083;BME280;13848;49.018;12.078;2023-04-01T11:48:26;96349.31;;;10.21;67.94
26083;BME280;13848;49.018;12.078;2023-04-01T11:51:20;96361.97;;;9.99;68.93
26083;BME280;13848;49.018;12.078;2023-04-01T11:53:56;96358.34;;;10.10;69.36
26083;BME280;13848;49.018;12.078;2023-04-01T11:56:39;96359.41;;;10.09;70.44
26083;BME280;13848;49.018;12.078;2023-04-01T12:02:04;96368.66;;;9.96;71.43
26083;BME280;13848;49.018;12.078;2023-04-01T12:05:08;96369.47;;;9.97;71.17
26083;BME280;13848;49.018;12.078;2023-04-01T12:07:50;96367.44;;;9.65;72.60
26083;BME280;13848;49.018;12.078;2023-04-01T12:10:21;96359.06;;;9.83;72.38
26083;BME280;13848;49.018;12.078;2023-04-01T12:12:57;96364.41;;;10.00;72.02
26083;BME280;13848;49.018;12.078;2023-04-01T12:15:30;96369.22;;;9.76;73.56
26083;BME280;13848;49.018;12.078;2023-04-01T12:18:07;96366.41;;;9.88;73.52
26083;BME280;13848;49.018;12.078;2023-04-01T12:20:45;96359.28;;;9.60;74.24
26083;BME280;13848;49.018;12.078;2023-04-01T12:23:27;96366.06;;;9.84;73.53
26083;BME280;13848;49.018;12.078;2023-04-01T12:26:13;96361.34;;;9.53;74.85
26083;BME280;13848;49.018;12.078;2023-04-01T12:28:50;96356.94;;;9.64;74.57
26083;BME280;13848;49.018;12.078;2023-04-01T12:31:27;96359.22;;;9.55;74.77
26083;BME280;13848;49.018;12.078;2023-04-01T12:34:28;96365.66;;;9.54;76.10
26083;BME280;13848;49.018;12.078;2023-04-01T12:37:05;96360.59;;;9.74;75.69
26083;BME280;13848;49.018;12.078;2023-04-01T12:42:55;96376.06;;;9.67;76.17
26083;BME280;13848;49.018;12.078;2023-04-01T12:45:30;96367.28;;;9.94;75.91
26083;BME280;13848;49.018;12.078;2023-04-01T12:48:12;96369.84;;;9.83;75.25
26083;BME280;13848;49.018;12.078;2023-04-01T12:50:57;96367.66;;;9.80;75.01
26083;BME280;13848;49.018;12.078;2023-04-01T12:53:38;96368.03;;;9.89;76.12
26083;BME280;13848;49.018;12.078;2023-04-01T12:56:14;96371.47;;;9.84;75.73
26083;BME280;13848;49.018;12.078;2023-04-01T12:59:14;96373.84;;;9.42;77.92
26083;BME280;13848;49.018;12.078;2023-04-01T13:01:56;96375.97;;;9.23;78.79
26083;BME280;13848;49.018;12.078;2023-04-01T13:04:50;96373.03;;;9.42;78.36
26083;BME280;13848;49.018;12.078;2023-04-01T13:07:37;96373.28;;;9.23;78.69
26083;BME280;13848;49.018;12.078;2023-04-01T13:10:15;96380.38;;;9.29;79.21
26083;BME280;13848;49.018;12.078;2023-04-01T13:12:58;96381.84;;;9.20;79.33
26083;BME280;13848;49.018;12.078;2023-04-01T13:15:33;96382.66;;;9.21;80.05
26083;BME280;13848;49.018;12.078;2023-04-01T13:18:11;96375.38;;;9.38;78.60
26083;BME280;13848;49.018;12.078;2023-04-01T13:20:44;96390.31;;;9.46;78.25
26083;BME280;13848;49.018;12.078;2023-04-01T13:23:23;96378.34;;;9.20;78.98
26083;BME280;13848;49.018;12.078;2023-04-01T13:25:54;96375.16;;;9.23;78.90
26083;BME280;13848;49.018;12.078;2023-04-01T13:28:29;96375.16;;;9.40;78.50
26083;BME280;13848;49.018;12.078;2023-04-01T13:31:02;96374.34;;;9.22;78.75
26083;BME280;13848;49.018;12.078;2023-04-01T13:33:38;96372.72;;;9.04;79.65
26083;BME280;13848;49.018;12.078;2023-04-01T13:36:14;96388.84;;;9.21;80.12
26083;BME280;13848;49.018;12.078;2023-04-01T13:42:09;96385.13;;;9.22;79.87
26083;BME280;13848;49.018;12.078;2023-04-01T13:44:41;96387.03;;;9.10;80.56
26083;BME280;13848;49.018;12.078;2023-04-01T13:47:23;96388.69;;;9.11;80.62
26083;BME280;13848;49.018;12.078;2023-04-01T13:50:17;96385.75;;;9.13;80.20
26083;BME280;13848;49.018;12.078;2023-04-01T13:53:13;96388.19;;;9.14;80.38
26083;BME280;13848;49.018;12.078;2023-04-01T13:55:55;96388.84;;;9.21;79.65
26083;BME280;13848;49.018;12.078;2023-04-01T13:58:48;96389.81;;;9.15;80.47
26083;BME280;13848;49.018;12.078;2023-04-01T14:01:25;96392.44;;;9.27;80.30
26083;BME280;13848;49.018;12.078;2023-04-01T14:04:27;96388.44;;;9.29;79.53
26083;BME280;13848;49.018;12.078;2023-04-01T14:07:04;96399.22;;;9.29;78.79
26083;BME280;13848;49.018;12.078;2023-04-01T14:09:50;96396.81;;;9.50;78.95
26083;BME280;13848;49.018;12.078;2023-04-01T14:12:28;96395.19;;;9.49;78.34
26083;BME280;13848;49.018;12.078;2023-04-01T14:15:07;96398.59;;;9.44;78.86
26083;BME280;13848;49.018;12.078;2023-04-01T14:17:48;96395.34;;;9.42;78.90
26083;BME280;13848;49.018;12.078;2023-04-01T14:20:26;96398.13;;;9.64;78.85
26083;BME280;13848;49.018;12.078;2023-04-01T14:23:08;96389.44;;;9.62;78.69
26083;BME280;13848;49.018;12.078;2023-04-01T14:25:51;96389.19;;;9.80;78.80
26083;BME280;13848;49.018;12.078;2023-04-01T14:28:22;96397.69;;;9.72;78.27
26083;BME280;13848;49.018;12.078;2023-04-01T14:31:18;96391.25;;;9.56;79.08